Time;durP1;ratioP1;P1;durP2;ratioP2;P2;SDS_P1;SDS_P2;PMS_P1;PMS_P2;Temp;Humidity;BMP_temperature;BMP_pressure;BME280_temperature;BME280_humidity;BME280_pressure;Samples;Min_cycle;Max_cycle;Signal;HPM_P1;HPM_P2
2022/08/23 00:01:12;;;;;;;17.02;11.00;;;16.70;99.90;;;;;;5085686;28;20035;-86
2022/08/23 00:03:38;;;;;;;21.65;12.57;;;16.70;99.90;;;;;;5102361;28;20061;-88
2022/08/23 00:06:04;;;;;;;21.15;12.98;;;16.70;99.90;;;;;;5068979;28;20087;-86
2022/08/23 00:08:30;;;;;;;18.75;12.13;;;16.70;99.90;;;;;;5070333;28;20076;-89
2022/08/23 00:10:56;;;;;;;17.92;11.52;;;16.70;99.90;;;;;;5045788;28;20048;-91
2022/08/23 00:13:22;;;;;;;15.18;11.45;;;16.70;99.90;;;;;;5078994;28;20036;-92
2022/08/23 00:15:48;;;;;;;19.15;11.35;;;16.60;99.90;;;;;;5064983;28;20485;-90
2022/08/23 00:18:15;;;;;;;15.40;10.57;;;16.60;99.90;;;;;;5085269;28;20062;-89
2022/08/23 00:20:42;;;;;;;15.68;10.35;;;16.60;99.90;;;;;;5085561;28;20029;-88
2022/08/23 00:23:07;;;;;;;13.73;10.50;;;16.60;99.90;;;;;;5101836;28;20043;-86
2022/08/23 00:25:33;;;;;;;18.38;11.10;;;16.50;99.90;;;;;;5080800;28;20051;-92
2022/08/23 00:27:59;;;;;;;13.60;10.95;;;16.50;99.90;;;;;;5078385;28;20090;-92
2022/08/23 00:30:25;;;;;;;16.02;10.55;;;16.50;99.90;;;;;;5027004;28;20114;-92
2022/08/23 00:32:50;;;;;;;13.43;10.55;;;16.50;99.90;;;;;;5077567;28;20047;-91
2022/08/23 00:35:16;;;;;;;14.52;10.82;;;16.40;99.90;;;;;;5077852;28;20092;-90
2022/08/23 00:37:42;;;;;;;13.82;10.57;;;16.50;99.90;;;;;;5077389;28;20070;-93
2022/08/23 00:40:09;;;;;;;13.60;10.48;;;16.50;99.90;;;;;;5044459;28;20056;-89
2022/08/23 00:48:38;;;;;;;14.07;10.68;;;16.30;99.90;;;;;;5049793;28;20082;-91
2022/08/23 00:51:09;;;;;;;13.38;10.52;;;16.30;99.90;;;;;;5060315;28;20047;-92
2022/08/23 00:53:38;;;;;;;15.73;10.68;;;16.30;99.90;;;;;;5060406;28;20055;-90
2022/08/23 00:56:06;;;;;;;14.35;11.18;;;16.30;99.90;;;;;;5027855;28;20047;-90
2022/08/23 00:58:32;;;;;;;16.25;12.50;;;16.20;99.90;;;;;;5043243;28;20067;-91
2022/08/23 01:00:58;;;;;;;15.48;12.38;;;16.20;99.90;;;;;;5077190;28;20403;-93
2022/08/23 01:03:26;;;;;;;16.30;11.73;;;16.20;99.90;;;;;;5043752;28;20040;-93
2022/08/23 01:06:10;;;;;;;16.15;11.88;;;16.20;99.90;;;;;;5044304;28;20054;-90
2022/08/23 01:08:36;;;;;;;15.20;12.20;;;16.10;99.90;;;;;;5060773;28;20372;-91
2022/08/23 01:11:07;;;;;;;12.65;11.18;;;16.10;99.90;;;;;;5044148;28;20043;-92
2022/08/23 01:13:51;;;;;;;17.58;12.88;;;16.10;99.90;;;;;;5060264;28;20126;-91
2022/08/23 01:16:18;;;;;;;;;;;16.00;99.90;;;;;;5045792;28;20074;-91
2022/08/23 01:18:44;;;;;;;16.33;12.13;;;16.10;99.90;;;;;;5059937;28;20015;-90
2022/08/23 01:21:17;;;;;;;16.02;12.32;;;16.00;99.90;;;;;;5059682;28;20076;-89
2022/08/23 01:23:48;;;;;;;17.17;12.73;;;16.00;99.90;;;;;;5060966;28;20044;-90
2022/08/23 01:26:14;;;;;;;19.27;14.07;;;15.90;99.90;;;;;;5077020;28;20062;-93
2022/08/23 01:28:40;;;;;;;16.30;13.57;;;15.90;99.90;;;;;;5077135;28;20386;-91
2022/08/23 01:31:07;;;;;;;19.70;14.15;;;15.90;99.90;;;;;;5077083;28;20040;-92
2022/08/23 01:33:34;;;;;;;16.35;13.30;;;15.90;99.90;;;;;;5060364;28;20479;-92
2022/08/23 01:36:00;;;;;;;16.27;12.73;;;15.80;99.90;;;;;;5044272;28;20620;-93
2022/08/23 01:38:26;;;;;;;19.92;13.35;;;15.80;99.90;;;;;;5043769;28;20032;-94
2022/08/23 01:40:51;;;;;;;17.60;13.68;;;15.80;99.90;;;;;;5063663;28;20052;-92
2022/08/23 01:43:18;;;;;;;18.58;13.63;;;15.80;99.90;;;;;;5094588;28;20047;-91
2022/08/23 01:45:45;;;;;;;17.15;12.82;;;15.80;99.90;;;;;;5064609;28;20033;-87
2022/08/23 01:48:10;;;;;;;16.38;12.73;;;15.70;99.90;;;;;;5087257;28;20031;-90
2022/08/23 01:50:36;;;;;;;18.25;14.25;;;15.70;99.90;;;;;;5071005;28;20048;-90
2022/08/23 01:53:02;;;;;;;16.02;13.30;;;15.70;99.90;;;;;;5069493;28;20048;-91
2022/08/23 01:55:27;;;;;;;16.30;12.68;;;15.70;99.90;;;;;;5060040;28;20055;-91
2022/08/23 01:57:55;;;;;;;18.35;12.85;;;15.70;99.90;;;;;;5045814;28;20044;-92
2022/08/23 02:00:26;;;;;;;17.27;13.43;;;15.70;99.90;;;;;;5045274;28;20480;-92
2022/08/23 02:02:52;;;;;;;17.70;13.43;;;15.60;99.90;;;;;;5045642;28;20052;-90
2022/08/23 02:05:18;;;;;;;18.42;12.73;;;15.60;99.90;;;;;;5063430;28;20051;-92
2022/08/23 02:07:44;;;;;;;19.08;15.20;;;15.60;99.90;;;;;;5036041;28;20047;-93
2022/08/23 02:10:09;;;;;;;18.38;15.32;;;15.60;99.90;;;;;;5072881;28;20071;-93
2022/08/23 02:12:36;;;;;;;19.60;15.52;;;15.60;99.90;;;;;;5061234;28;20045;-94
2022/08/23 02:15:02;;;;;;;19.50;15.18;;;15.60;99.90;;;;;;5031560;28;20056;-94
2022/08/23 02:17:28;;;;;;;17.75;14.85;;;15.60;99.90;;;;;;5060239;28;20103;-94
2022/08/23 02:19:54;;;;;;;17.98;14.73;;;15.60;99.90;;;;;;5059711;28;20500;-92
2022/08/23 02:22:20;;;;;;;22.83;14.80;;;15.50;99.90;;;;;;5062118;28;20084;-93
2022/08/23 02:24:46;;;;;;;16.13;14.27;;;15.50;99.90;;;;;;5043763;28;20059;-93
2022/08/23 02:27:14;;;;;;;17.13;14.10;;;15.50;99.90;;;;;;5044547;28;20049;-93
2022/08/23 02:29:40;;;;;;;16.10;13.10;;;15.50;99.90;;;;;;5077113;28;20070;-92
2022/08/23 02:32:06;;;;;;;18.63;14.20;;;15.40;99.90;;;;;;5043415;28;20052;-93
2022/08/23 02:34:32;;;;;;;17.35;13.63;;;15.40;99.90;;;;;;5043828;28;20056;-93
2022/08/23 02:36:57;;;;;;;18.40;13.70;;;15.40;99.90;;;;;;5059687;28;20123;-92
2022/08/23 02:39:24;;;;;;;16.15;13.40;;;15.30;99.90;;;;;;5059685;28;20045;-89
2022/08/23 02:41:50;;;;;;;15.35;13.10;;;15.30;99.90;;;;;;5059612;28;20076;-92
2022/08/23 02:44:17;;;;;;;16.65;13.05;;;15.20;99.90;;;;;;5043397;28;20088;-92
2022/08/23 02:46:44;;;;;;;13.98;12.40;;;15.30;99.90;;;;;;5043232;28;20059;-92
2022/08/23 02:49:10;;;;;;;17.48;12.63;;;15.20;99.90;;;;;;5076869;28;20048;-90
2022/08/23 02:51:36;;;;;;;16.25;12.75;;;15.20;99.90;;;;;;5042776;28;20048;-92
2022/08/23 02:54:02;;;;;;;12.63;11.15;;;15.20;99.90;;;;;;5042577;28;20121;-91
2022/08/23 02:56:28;;;;;;;14.38;11.18;;;15.20;99.90;;;;;;5043625;28;20460;-90
2022/08/23 02:58:53;;;;;;;14.85;11.50;;;15.20;99.90;;;;;;5076802;28;20532;-92
2022/08/23 03:01:21;;;;;;;13.13;11.02;;;15.20;99.90;;;;;;5044520;28;20079;-91
2022/08/23 03:03:47;;;;;;;15.82;12.45;;;15.10;99.90;;;;;;5043725;28;20052;-93
2022/08/23 03:06:13;;;;;;;14.20;12.18;;;15.10;99.90;;;;;;5063681;28;20060;-93
2022/08/23 03:08:39;;;;;;;15.60;12.40;;;15.10;99.90;;;;;;5047211;28;20044;-92
2022/08/23 03:11:10;;;;;;;13.52;11.90;;;15.10;99.90;;;;;;5060239;28;20055;-94
2022/08/23 03:13:36;;;;;;;14.15;12.68;;;15.00;99.90;;;;;;5043536;28;20037;-94
2022/08/23 03:16:02;;;;;;;12.75;10.95;;;15.00;99.90;;;;;;5076391;28;20506;-93
2022/08/23 03:18:27;;;;;;;14.45;10.32;;;14.90;99.90;;;;;;5059147;28;20044;-91
2022/08/23 03:20:53;;;;;;;12.93;10.85;;;14.90;99.90;;;;;;5075740;28;20373;-93
2022/08/23 03:23:19;;;;;;;10.48;9.48;;;14.80;99.90;;;;;;5059242;28;20094;-93
2022/08/23 03:25:44;;;;;;;11.35;10.15;;;14.80;99.90;;;;;;5059902;28;20047;-92
2022/08/23 03:28:10;;;;;;;13.82;10.55;;;14.80;99.90;;;;;;5075855;28;20049;-92
2022/08/23 03:30:36;;;;;;;14.88;11.43;;;14.80;99.90;;;;;;5059427;28;20123;-91
2022/08/23 03:33:02;;;;;;;14.60;13.00;;;14.80;99.90;;;;;;5025858;28;20476;-93
2022/08/23 03:35:28;;;;;;;17.50;13.13;;;14.70;99.90;;;;;;5042488;28;20083;-91
2022/08/23 03:37:53;;;;;;;18.75;15.80;;;14.80;99.90;;;;;;5078681;28;20040;-95
2022/08/23 03:40:19;;;;;;;16.73;14.35;;;14.80;99.90;;;;;;5077386;28;20178;-95
2022/08/23 03:42:45;;;;;;;20.38;14.55;;;14.80;99.90;;;;;;5060515;28;20040;-95
2022/08/23 03:45:11;;;;;;;19.63;15.45;;;14.80;99.90;;;;;;5060805;28;20048;-92
2022/08/23 03:47:37;;;;;;;48.38;17.67;;;14.80;99.90;;;;;;5042440;28;20614;-91
2022/08/23 03:50:03;;;;;;;14.23;12.73;;;14.70;99.90;;;;;;5060616;28;20102;-91
2022/08/23 03:52:28;;;;;;;15.82;12.90;;;14.70;99.90;;;;;;5044222;28;20048;-92
2022/08/23 03:54:54;;;;;;;38.97;15.52;;;14.70;99.90;;;;;;5060947;28;20047;-95
2022/08/23 03:57:20;;;;;;;22.52;14.85;;;14.70;99.90;;;;;;5059497;28;20049;-93
2022/08/23 03:59:47;;;;;;;22.05;13.55;;;14.70;99.90;;;;;;5059608;28;20132;-93
2022/08/23 04:02:13;;;;;;;18.38;13.85;;;14.70;99.90;;;;;;5060198;28;20056;-94
2022/08/23 04:04:39;;;;;;;37.78;13.10;;;14.70;99.90;;;;;;5042603;28;20040;-94
2022/08/23 04:07:05;;;;;;;32.70;10.70;;;14.70;99.90;;;;;;5079080;28;20052;-95
2022/08/23 04:09:30;;;;;;;54.30;11.85;;;14.70;99.90;;;;;;5079486;28;20055;-94
2022/08/23 04:11:56;;;;;;;59.40;13.25;;;14.70;99.90;;;;;;5061033;28;20045;-95
2022/08/23 04:14:23;;;;;;;61.58;12.55;;;14.70;99.90;;;;;;5086761;28;20060;-91
2022/08/23 04:16:49;;;;;;;49.45;12.52;;;14.80;99.90;;;;;;5081799;28;20065;-94
2022/08/23 04:19:15;;;;;;;49.88;13.15;;;14.70;99.90;;;;;;5043104;28;20423;-92
2022/08/23 04:21:42;;;;;;;74.60;13.75;;;14.70;99.90;;;;;;5042120;28;20098;-93
2022/08/23 04:24:08;;;;;;;113.20;18.00;;;14.60;99.90;;;;;;5042741;28;20450;-92
2022/08/23 04:26:34;;;;;;;56.03;14.68;;;14.60;99.90;;;;;;5080727;28;20094;-93
2022/08/23 04:29:00;;;;;;;74.40;16.90;;;14.70;99.90;;;;;;5043463;28;20476;-93
2022/08/23 04:31:26;;;;;;;35.05;15.23;;;14.60;99.90;;;;;;5041767;28;20048;-93
2022/08/23 04:33:52;;;;;;;32.90;15.75;;;14.70;99.90;;;;;;5058265;28;20129;-93
2022/08/23 04:36:18;;;;;;;34.83;17.42;;;14.70;99.90;;;;;;5043693;28;20135;-91
2022/08/23 04:38:44;;;;;;;32.97;15.15;;;14.60;99.90;;;;;;5047920;28;20079;-90
2022/08/23 04:43:55;;;;;;;20.17;14.90;;;14.70;99.90;;;;;;5069921;28;20096;-88
2022/08/23 04:46:21;;;;;;;24.88;15.63;;;14.60;99.90;;;;;;5098225;28;20048;-91
2022/08/23 04:48:47;;;;;;;21.83;16.10;;;14.70;99.90;;;;;;5080071;28;20081;-92
2022/08/23 04:51:13;;;;;;;19.25;16.85;;;14.70;99.90;;;;;;5074855;28;20041;-93
2022/08/23 04:53:38;;;;;;;19.00;17.00;;;14.70;99.90;;;;;;5059204;28;20048;-85
2022/08/23 04:56:05;;;;;;;18.55;16.55;;;14.70;99.90;;;;;;5070651;28;20040;-91
2022/08/23 04:58:31;;;;;;;17.55;15.70;;;14.80;99.90;;;;;;5074065;28;20060;-94
2022/08/23 05:00:58;;;;;;;16.77;15.15;;;15.00;99.90;;;;;;5088011;28;20064;-93
2022/08/23 05:03:24;;;;;;;15.57;13.82;;;15.40;99.90;;;;;;5064444;28;20052;-93
2022/08/23 05:05:51;;;;;;;14.60;13.15;;;15.80;99.90;;;;;;5058520;28;20102;-94
2022/08/23 05:08:17;;;;;;;13.10;11.98;;;16.10;99.90;;;;;;5075663;28;20052;-93
2022/08/23 05:10:42;;;;;;;11.63;10.40;;;16.30;99.90;;;;;;5058091;28;20055;-94
2022/08/23 05:13:08;;;;;;;11.38;9.73;;;16.20;99.90;;;;;;5059033;28;20044;-93
2022/08/23 05:15:33;;;;;;;10.43;9.40;;;16.30;99.90;;;;;;5058897;28;20141;-93
2022/08/23 05:18:02;;;;;;;9.68;8.68;;;16.30;99.90;;;;;;5041498;28;20051;-93
2022/08/23 05:20:28;;;;;;;8.57;7.88;;;16.50;99.90;;;;;;5057576;28;20056;-95
2022/08/23 05:22:53;;;;;;;7.63;6.93;;;16.70;99.90;;;;;;5057308;28;20070;-93
2022/08/23 05:25:20;;;;;;;7.32;6.70;;;17.20;99.90;;;;;;5044376;28;20048;-94
2022/08/23 05:27:46;;;;;;;7.40;6.60;;;17.60;99.90;;;;;;5041123;28;20101;-95
2022/08/23 05:30:11;;;;;;;6.88;5.90;;;18.10;99.90;;;;;;5042376;28;20044;-95
2022/08/23 05:32:38;;;;;;;6.20;5.72;;;18.90;99.90;;;;;;5074769;28;20053;-95
2022/08/23 05:35:04;;;;;;;6.93;6.25;;;19.30;99.90;;;;;;5041907;28;20185;-95
2022/08/23 05:37:29;;;;;;;7.18;5.55;;;19.50;99.90;;;;;;5041164;28;20040;-94
2022/08/23 05:39:55;;;;;;;6.25;5.75;;;19.70;99.90;;;;;;5040556;28;20049;-95
2022/08/23 05:42:21;;;;;;;6.68;6.18;;;20.10;99.90;;;;;;5058276;28;20094;-94
2022/08/23 05:44:46;;;;;;;7.95;6.85;;;20.30;99.90;;;;;;5041639;28;20047;-95
2022/08/23 05:47:13;;;;;;;8.00;7.22;;;20.70;99.90;;;;;;5057493;28;20529;-95
2022/08/23 05:49:39;;;;;;;8.48;7.65;;;21.00;99.90;;;;;;5057291;28;20070;-96
2022/08/23 05:52:06;;;;;;;11.57;10.38;;;21.30;99.90;;;;;;5059474;28;20196;-92
2022/08/23 05:54:31;;;;;;;12.18;10.75;;;22.00;99.90;;;;;;5047139;28;20102;-95
2022/08/23 05:56:57;;;;;;;11.13;9.15;;;22.50;99.90;;;;;;5062164;28;20083;-95
2022/08/23 05:59:23;;;;;;;11.82;9.23;;;23.10;99.90;;;;;;5079854;28;20124;-95
2022/08/23 06:01:48;;;;;;;9.55;8.60;;;23.10;99.90;;;;;;5065914;28;20102;-95
2022/08/23 06:04:14;;;;;;;10.38;9.30;;;23.50;99.90;;;;;;5064921;28;20195;-96
2022/08/23 06:06:40;;;;;;;10.55;9.50;;;23.40;99.90;;;;;;5071690;28;20079;-93
2022/08/23 06:09:08;;;;;;;9.98;8.75;;;23.40;99.90;;;;;;5073382;28;20024;-90
2022/08/23 06:11:39;;;;;;;10.00;9.02;;;23.90;99.90;;;;;;5147381;23;20051;-95
2022/08/23 06:14:09;;;;;;;9.60;8.70;;;24.20;99.90;;;;;;5055395;28;20157;-94
2022/08/23 06:16:39;;;;;;;10.60;8.75;;;23.30;99.90;;;;;;5052268;28;20051;-96
2022/08/23 06:19:06;;;;;;;10.27;8.85;;;24.60;99.90;;;;;;5042544;28;20511;-92
2022/08/23 06:21:32;;;;;;;9.68;8.82;;;24.80;99.90;;;;;;5041724;28;20054;-94
2022/08/23 06:23:58;;;;;;;10.10;8.85;;;24.70;99.90;;;;;;5075164;28;20484;-94
2022/08/23 06:26:34;;;;;;;9.45;8.43;;;24.40;99.90;;;;;;5059308;28;20040;-95
2022/08/23 06:29:02;;;;;;;8.90;8.00;;;25.10;99.90;;;;;;5045176;28;20390;-96
2022/08/23 06:32:01;;;;;;;8.52;7.78;;;25.20;99.90;;;;;;5048427;28;20048;-94
2022/08/23 06:34:32;;;;;;;9.18;7.97;;;26.10;99.90;;;;;;5054918;28;20044;-94
2022/08/23 06:37:03;;;;;;;8.43;7.68;;;26.30;99.90;;;;;;5070462;28;20063;-96
2022/08/23 06:39:30;;;;;;;9.77;7.47;;;26.50;99.90;;;;;;5054767;28;20044;-93
2022/08/23 06:42:00;;;;;;;9.57;7.45;;;26.60;99.90;;;;;;5053737;28;20055;-95
2022/08/23 06:44:26;;;;;;;8.27;7.57;;;26.50;99.90;;;;;;5052431;28;20044;-94
2022/08/23 06:46:55;;;;;;;9.20;8.00;;;26.30;99.90;;;;;;5048220;28;20105;-93
2022/08/23 06:49:20;;;;;;;8.05;7.00;;;26.70;99.90;;;;;;5049857;28;20050;-93
2022/08/23 06:51:49;;;;;;;11.77;8.13;;;26.80;99.90;;;;;;5070629;28;20072;-93
2022/08/23 06:54:15;;;;;;;8.30;7.60;;;26.50;99.90;;;;;;5052828;28;20055;-95
2022/08/23 06:56:41;;;;;;;8.48;7.22;;;26.60;99.90;;;;;;5071029;28;20047;-94
2022/08/23 06:59:07;;;;;;;7.55;6.68;;;27.20;99.90;;;;;;5053342;28;20486;-92
2022/08/23 07:01:44;;;;;;;7.93;7.07;;;27.30;99.90;;;;;;5068468;28;20130;-90
2022/08/23 07:04:11;;;;;;;7.43;6.82;;;27.50;99.90;;;;;;5067285;28;20048;-92
2022/08/23 07:06:36;;;;;;;6.82;6.22;;;27.10;99.90;;;;;;5071362;28;20046;-94
2022/08/23 07:09:03;;;;;;;12.27;6.43;;;26.60;99.90;;;;;;5054884;28;20574;-91
2022/08/23 07:11:32;;;;;;;9.88;6.10;;;27.40;99.90;;;;;;5060251;28;20051;-89
2022/08/23 07:13:59;;;;;;;7.70;6.20;;;27.50;99.90;;;;;;5073192;28;20063;-89
2022/08/23 07:16:35;;;;;;;7.32;6.57;;;27.90;99.90;;;;;;5084909;28;20079;-93
2022/08/23 07:19:02;;;;;;;8.20;5.10;;;28.00;99.90;;;;;;5067163;28;20059;-92
2022/08/23 07:21:27;;;;;;;7.28;5.85;;;28.10;99.90;;;;;;5048683;28;20059;-92
2022/08/23 07:23:54;;;;;;;5.57;5.07;;;28.20;99.90;;;;;;5082220;28;20100;-90
2022/08/23 07:26:20;;;;;;;6.30;5.10;;;28.40;99.90;;;;;;5047269;28;20514;-88
2022/08/23 07:28:46;;;;;;;6.38;4.63;;;28.60;99.70;;;;;;5065807;28;20052;-91
2022/08/23 07:31:13;;;;;;;6.45;4.85;;;29.30;99.60;;;;;;5080231;28;20044;-93
2022/08/23 07:33:39;;;;;;;5.78;4.88;;;29.40;98.90;;;;;;5065385;28;20040;-90
2022/08/23 07:36:08;;;;;;;6.20;4.45;;;29.50;98.60;;;;;;5045471;28;20050;-87
2022/08/23 07:38:34;;;;;;;4.82;4.32;;;29.50;98.10;;;;;;5044881;28;20193;-88
2022/08/23 07:41:02;;;;;;;6.68;4.43;;;28.90;98.40;;;;;;5050937;28;20047;-85
2022/08/23 07:43:30;;;;;;;5.28;4.45;;;29.20;98.10;;;;;;5036264;28;20086;-85
2022/08/23 07:45:58;;;;;;;6.22;4.50;;;29.00;98.50;;;;;;5068342;28;20044;-87
2022/08/23 07:48:24;;;;;;;5.47;4.30;;;29.30;98.80;;;;;;5049782;28;20044;-85
2022/08/23 07:50:54;;;;;;;5.63;4.93;;;29.60;98.30;;;;;;5064946;28;20074;-85
2022/08/23 07:53:20;;;;;;;10.32;5.10;;;29.50;98.10;;;;;;5045977;28;20505;-85
2022/08/23 07:55:46;;;;;;;5.43;4.90;;;29.80;98.20;;;;;;5043009;28;20080;-85
2022/08/23 07:58:12;;;;;;;6.38;5.53;;;29.50;98.30;;;;;;5045372;28;20074;-83
2022/08/23 08:00:37;;;;;;;6.47;4.97;;;30.00;97.50;;;;;;5064036;28;20395;-83
2022/08/23 08:03:03;;;;;;;9.10;5.18;;;29.60;97.80;;;;;;5059688;28;20040;-85
2022/08/23 08:05:31;;;;;;;7.07;4.85;;;29.90;97.60;;;;;;5058996;28;20099;-85
2022/08/23 08:08:07;;;;;;;4.80;4.32;;;29.90;97.60;;;;;;5054335;28;20048;-88
2022/08/23 08:10:37;;;;;;;5.50;4.40;;;30.70;98.20;;;;;;5027761;28;20084;-86
2022/08/23 08:13:06;;;;;;;4.78;4.38;;;29.70;98.20;;;;;;5041922;28;20450;-86
2022/08/23 08:15:32;;;;;;;5.03;4.55;;;29.80;98.10;;;;;;5059028;28;20101;-87
2022/08/23 08:18:00;;;;;;;6.13;4.32;;;30.50;97.90;;;;;;5027072;28;20094;-86
2022/08/23 08:20:27;;;;;;;4.90;4.40;;;29.10;97.50;;;;;;5026295;28;20135;-85
2022/08/23 08:22:55;;;;;;;5.20;4.80;;;31.00;97.10;;;;;;5027200;28;20054;-85
2022/08/23 08:25:21;;;;;;;6.75;4.90;;;30.90;96.60;;;;;;5041142;28;20036;-86
2022/08/23 08:27:47;;;;;;;7.15;4.93;;;30.90;96.90;;;;;;5024928;28;20070;-86
2022/08/23 08:30:15;;;;;;;5.10;4.45;;;30.70;97.40;;;;;;5023107;28;20040;-87
2022/08/23 08:32:42;;;;;;;4.68;4.28;;;31.40;97.00;;;;;;5025043;28;20087;-86
2022/08/23 08:35:08;;;;;;;6.00;4.72;;;31.40;96.70;;;;;;5024922;28;20048;-87
2022/08/23 08:37:35;;;;;;;6.85;5.03;;;31.20;97.00;;;;;;5045026;28;20139;-86
2022/08/23 08:40:01;;;;;;;7.50;4.32;;;30.90;96.80;;;;;;5063442;28;20048;-86
2022/08/23 08:42:50;;;;;;;5.93;4.30;;;31.10;97.20;;;;;;5041379;28;20042;-91
2022/08/23 08:45:21;;;;;;;5.68;4.47;;;30.30;95.80;;;;;;5046960;28;20054;-89
2022/08/23 08:48:00;;;;;;;7.47;4.38;;;30.30;96.80;;;;;;5040659;28;20483;-89
2022/08/23 08:50:39;;;;;;;8.02;4.20;;;30.80;96.50;;;;;;5072465;28;20135;-90
2022/08/23 08:53:15;;;;;;;5.07;3.75;;;32.00;95.90;;;;;;5040131;28;20047;-88
2022/08/23 08:55:46;;;;;;;4.25;3.83;;;31.70;95.90;;;;;;5039658;28;20102;-90
2022/08/23 08:58:18;;;;;;;6.07;3.60;;;32.10;95.60;;;;;;5039365;28;20094;-85
2022/08/23 09:00:45;;;;;;;8.82;3.67;;;31.80;96.10;;;;;;5056902;28;20048;-88
2022/08/23 09:03:19;;;;;;;5.82;4.70;;;32.10;95.70;;;;;;5039369;28;20060;-87
2022/08/23 09:06:15;;;;;;;6.75;4.80;;;32.60;95.30;;;;;;5072805;28;20109;-87
2022/08/23 09:09:09;;;;;;;6.80;4.43;;;32.80;95.20;;;;;;5021906;28;20453;-87
2022/08/23 09:12:02;;;;;;;6.85;4.38;;;33.10;94.90;;;;;;5046094;28;20060;-87
2022/08/23 09:14:36;;;;;;;4.80;4.30;;;32.70;95.10;;;;;;5011321;28;20079;-90
2022/08/23 09:17:03;;;;;;;4.63;4.03;;;32.60;95.00;;;;;;5057745;28;20123;-90
2022/08/23 09:19:30;;;;;;;5.60;4.30;;;33.00;94.90;;;;;;5057508;28;20048;-89
2022/08/23 09:22:01;;;;;;;4.53;3.33;;;33.10;94.40;;;;;;5040181;28;20403;-89
2022/08/23 09:24:27;;;;;;;5.20;3.45;;;33.20;94.20;;;;;;5038899;28;20051;-89
2022/08/23 09:26:53;;;;;;;3.72;2.90;;;32.30;94.60;;;;;;5039264;28;20048;-90
2022/08/23 09:29:20;;;;;;;6.10;3.40;;;32.70;94.60;;;;;;5055005;28;20044;-93
2022/08/23 09:31:52;;;;;;;5.95;3.58;;;32.30;94.40;;;;;;5056434;28;20060;-90
2022/08/23 09:34:36;;;;;;;5.57;3.33;;;32.50;93.90;;;;;;5023480;28;20051;-89
2022/08/23 09:37:10;;;;;;;6.57;3.50;;;33.20;93.80;;;;;;5025674;28;20084;-90
2022/08/23 09:39:41;;;;;;;4.40;3.08;;;33.20;93.40;;;;;;5071966;28;20074;-90
2022/08/23 09:42:26;;;;;;;4.95;3.13;;;33.10;92.50;;;;;;5039215;28;20052;-88
2022/08/23 09:44:51;;;;;;;4.18;2.90;;;33.30;92.40;;;;;;5055867;28;20139;-89
2022/08/23 09:47:17;;;;;;;2.78;2.10;;;33.20;92.70;;;;;;5038612;28;20135;-89
2022/08/23 09:49:46;;;;;;;3.92;2.67;;;32.60;92.60;;;;;;5055512;28;20048;-89
2022/08/23 09:52:25;;;;;;;5.68;3.05;;;32.40;91.90;;;;;;5038957;28;20051;-88
2022/08/23 09:55:03;;;;;;;5.38;2.83;;;33.30;92.70;;;;;;5056105;28;20080;-90
2022/08/23 09:57:30;;;;;;;3.47;2.40;;;33.30;92.30;;;;;;5071781;28;20051;-89
2022/08/23 10:00:23;;;;;;;2.50;2.30;;;33.40;92.20;;;;;;5023263;28;20051;-88
2022/08/23 10:02:49;;;;;;;7.13;2.78;;;32.90;92.50;;;;;;5050846;28;20067;-89
2022/08/23 10:05:14;;;;;;;4.93;3.25;;;33.90;91.80;;;;;;5026864;28;20044;-89
2022/08/23 10:08:00;;;;;;;3.88;2.85;;;33.70;91.70;;;;;;5059901;28;20055;-89
2022/08/23 10:10:31;;;;;;;3.70;3.30;;;32.80;91.80;;;;;;5025509;28;20052;-87
2022/08/23 10:13:00;;;;;;;4.70;3.28;;;33.20;91.80;;;;;;5046922;28;20070;-87
2022/08/23 10:16:07;;;;;;;3.70;2.83;;;32.70;91.70;;;;;;5045278;28;20044;-86
2022/08/23 10:18:41;;;;;;;5.25;2.72;;;32.90;91.70;;;;;;5053134;28;20056;-86
2022/08/23 10:21:24;;;;;;;5.35;3.30;;;33.20;91.90;;;;;;5081832;28;20391;-85
2022/08/23 10:24:03;;;;;;;3.72;2.78;;;33.40;92.50;;;;;;5024805;28;20055;-86
2022/08/23 10:26:30;;;;;;;3.53;3.10;;;33.60;92.10;;;;;;5038858;28;20064;-86
2022/08/23 10:32:07;;;;;;;3.27;2.90;;;33.40;91.60;;;;;;5041981;28;20525;-86
2022/08/23 10:34:51;;;;;;;5.55;3.00;;;32.80;91.20;;;;;;5039113;28;20109;-87
2022/08/23 10:37:39;;;;;;;5.03;3.50;;;32.80;91.20;;;;;;5038547;28;20589;-86
2022/08/23 10:40:14;;;;;;;4.43;3.60;;;32.60;91.40;;;;;;5039446;28;20048;-87
2022/08/23 10:43:01;;;;;;;3.78;3.28;;;31.90;91.80;;;;;;5034512;28;20060;-86
2022/08/23 10:45:36;;;;;;;5.07;3.50;;;31.70;92.10;;;;;;5074439;28;20048;-88
2022/08/23 10:48:27;;;;;;;4.47;3.35;;;31.80;92.50;;;;;;5035954;28;20040;-87
2022/08/23 10:51:08;;;;;;;7.72;3.50;;;31.90;92.00;;;;;;5058861;28;20048;-88
2022/08/23 10:53:49;;;;;;;5.03;2.92;;;32.10;92.00;;;;;;5072216;28;20056;-87
2022/08/23 10:56:19;;;;;;;3.33;3.05;;;31.40;91.70;;;;;;5058203;28;20090;-88
2022/08/23 10:58:50;;;;;;;5.32;3.42;;;31.20;92.70;;;;;;5046479;28;20392;-86
2022/08/23 11:01:53;;;;;;;5.38;3.70;;;31.40;93.00;;;;;;5043833;28;20051;-89
2022/08/23 11:04:47;;;;;;;6.47;3.33;;;31.40;92.90;;;;;;5064757;28;20056;-89
2022/08/23 11:07:24;;;;;;;3.40;3.10;;;31.40;92.40;;;;;;5045364;28;20159;-89
2022/08/23 11:10:23;;;;;;;5.25;3.22;;;31.70;91.40;;;;;;5056732;28;20478;-92
2022/08/23 11:13:11;;;;;;;4.57;3.33;;;31.60;91.60;;;;;;5057049;28;20060;-91
2022/08/23 11:15:57;;;;;;;3.50;2.60;;;31.30;92.10;;;;;;5085118;28;20048;-94
2022/08/23 11:18:41;;;;;;;4.32;2.83;;;30.60;92.70;;;;;;5077774;28;20051;-94
2022/08/23 11:21:08;;;;;;;4.68;3.00;;;31.10;91.50;;;;;;5078280;28;20036;-93
2022/08/23 11:23:43;;;;;;;3.22;2.92;;;30.50;91.70;;;;;;5060570;28;20040;-90
2022/08/23 11:26:22;;;;;;;6.55;3.50;;;30.50;92.30;;;;;;5064021;28;20044;-89
2022/08/23 11:28:54;;;;;;;4.18;3.05;;;30.40;92.70;;;;;;5065334;28;20040;-95
2022/08/23 11:31:29;;;;;;;5.07;2.72;;;30.20;92.20;;;;;;5056366;28;20048;-90
2022/08/23 11:33:59;;;;;;;6.35;2.97;;;30.00;93.00;;;;;;5063841;28;20028;-90
2022/08/23 11:36:26;;;;;;;4.53;3.30;;;30.40;92.70;;;;;;5081812;28;20064;-90
2022/08/23 11:38:51;;;;;;;6.72;2.85;;;30.30;92.80;;;;;;5052079;28;20456;-91
2022/08/23 11:41:59;;;;;;;5.00;2.85;;;30.30;92.50;;;;;;5074633;28;20071;-90
2022/08/23 11:44:40;;;;;;;5.68;3.47;;;30.50;91.90;;;;;;4944397;28;20093;-91
2022/08/23 11:47:07;;;;;;;6.05;3.00;;;30.30;92.60;;;;;;4943081;28;20077;-92
2022/08/23 11:49:48;;;;;;;5.75;3.47;;;30.40;92.70;;;;;;5002343;28;20052;-91
2022/08/23 11:52:32;;;;;;;6.50;3.33;;;30.30;92.40;;;;;;5074931;28;20529;-93
2022/08/23 11:55:17;;;;;;;5.53;3.00;;;30.40;92.60;;;;;;5058096;28;20075;-89
2022/08/23 11:57:55;;;;;;;8.43;3.42;;;30.70;93.00;;;;;;5075393;28;20500;-91
2022/08/23 12:00:43;;;;;;;4.35;2.95;;;30.60;92.20;;;;;;5041605;28;20391;-91
2022/08/23 12:03:32;;;;;;;5.53;3.38;;;30.50;92.40;;;;;;5061523;28;20036;-91
2022/08/23 12:06:10;;;;;;;4.93;3.03;;;30.30;92.20;;;;;;5045142;28;20046;-91
2022/08/23 12:08:48;;;;;;;6.18;3.80;;;30.40;92.30;;;;;;5042505;28;20040;-93
2022/08/23 12:11:15;;;;;;;5.05;3.15;;;30.20;92.50;;;;;;5026569;28;20067;-93
2022/08/23 12:13:56;;;;;;;3.63;2.58;;;30.30;92.50;;;;;;5047492;28;20059;-93
2022/08/23 12:16:22;;;;;;;3.35;2.30;;;30.40;92.40;;;;;;5043934;28;20083;-93
2022/08/23 12:18:48;;;;;;;3.53;2.40;;;30.40;92.00;;;;;;5074828;28;20077;-95
2022/08/23 12:21:21;;;;;;;3.75;2.63;;;30.40;92.10;;;;;;5075785;28;20040;-93
2022/08/23 12:23:49;;;;;;;3.92;3.13;;;30.50;91.80;;;;;;5029957;28;20052;-91
2022/08/23 12:26:28;;;;;;;4.43;3.33;;;30.80;92.00;;;;;;5057941;28;20055;-91
2022/08/23 12:29:26;;;;;;;5.13;2.90;;;31.20;92.00;;;;;;5075986;28;20089;-93
2022/08/23 12:32:14;;;;;;;4.35;2.85;;;31.40;92.00;;;;;;5044778;28;20390;-93
2022/08/23 12:34:56;;;;;;;5.03;3.00;;;31.40;93.00;;;;;;5044400;28;20043;-93
2022/08/23 12:37:28;;;;;;;6.68;3.17;;;31.80;91.90;;;;;;5059545;28;20040;-93
2022/08/23 12:39:56;;;;;;;5.05;2.90;;;31.50;91.50;;;;;;5079524;28;20108;-92
2022/08/23 12:42:30;;;;;;;4.28;2.83;;;31.20;91.80;;;;;;5041837;28;20044;-91
2022/08/23 12:45:11;;;;;;;4.43;2.80;;;31.20;93.00;;;;;;5041817;28;20048;-90
2022/08/23 12:47:36;;;;;;;5.78;3.72;;;31.20;92.00;;;;;;5065433;28;20051;-92
2022/08/23 12:50:09;;;;;;;4.82;3.08;;;31.30;92.10;;;;;;5030077;28;20063;-92
2022/08/23 12:52:35;;;;;;;3.25;2.67;;;31.10;91.30;;;;;;5042403;28;20028;-93
2022/08/23 12:55:01;;;;;;;3.60;2.30;;;31.20;91.10;;;;;;5074569;28;20096;-92
2022/08/23 12:57:36;;;;;;;5.10;2.75;;;31.00;91.10;;;;;;5057670;28;20530;-92
2022/08/23 13:00:13;;;;;;;4.15;2.70;;;31.00;91.30;;;;;;5059353;28;20355;-85
2022/08/23 13:02:41;;;;;;;5.45;3.20;;;31.10;91.60;;;;;;5091194;28;20044;-87
2022/08/23 13:05:30;;;;;;;4.15;2.70;;;31.10;91.40;;;;;;5055956;28;20475;-87